createdAt,value
2018-05-31T00:00:40.864Z,19.50
2018-05-31T00:03:08.564Z,19.40
2018-05-31T00:05:36.284Z,19.40
2018-05-31T00:08:04.747Z,19.40
2018-05-31T00:10:33.255Z,19.20
2018-05-31T00:13:00.936Z,19.20
2018-05-31T00:15:28.941Z,19.10
2018-05-31T00:17:56.619Z,19.10
2018-05-31T00:20:24.315Z,19.20
2018-05-31T00:22:52.013Z,19.20
2018-05-31T00:25:19.692Z,19.20
2018-05-31T00:27:47.408Z,19.10
2018-05-31T00:30:15.147Z,19.00
2018-05-31T00:32:42.880Z,19.00
2018-05-31T00:35:10.555Z,19.00
2018-05-31T00:37:38.258Z,19.00
2018-05-31T00:40:06.359Z,19.10
2018-05-31T00:42:34.107Z,19.10
2018-05-31T00:45:02.549Z,19.10
2018-05-31T00:47:30.285Z,19.10
2018-05-31T00:49:57.984Z,19.20
2018-05-31T00:52:25.696Z,19.10
2018-05-31T00:54:53.457Z,19.10
2018-05-31T00:57:21.184Z,18.90
2018-05-31T00:59:49.652Z,18.90
2018-05-31T01:02:17.364Z,18.80
2018-05-31T01:04:45.107Z,18.80
2018-05-31T01:07:13.577Z,18.80
2018-05-31T01:09:42.094Z,18.70
2018-05-31T01:12:09.804Z,18.80
2018-05-31T01:14:37.510Z,18.90
2018-05-31T01:17:05.244Z,19.00
2018-05-31T01:19:33.734Z,19.20
2018-05-31T01:22:01.475Z,19.20
2018-05-31T01:24:30.019Z,19.30
2018-05-31T01:26:58.065Z,19.30
2018-05-31T01:29:26.526Z,19.40
2018-05-31T01:31:54.211Z,19.40
2018-05-31T01:34:22.663Z,19.50
2018-05-31T01:36:50.352Z,19.50
2018-05-31T01:39:18.095Z,19.60
2018-05-31T01:41:45.801Z,19.60
2018-05-31T01:44:13.506Z,19.60
2018-05-31T01:46:41.233Z,19.60
2018-05-31T01:49:08.950Z,19.60
2018-05-31T01:51:36.628Z,19.60
2018-05-31T01:54:05.145Z,19.70
2018-05-31T01:56:32.906Z,19.70
2018-05-31T01:59:01.380Z,19.70
2018-05-31T02:01:29.824Z,19.70
2018-05-31T02:03:57.532Z,19.70
2018-05-31T02:06:25.348Z,19.70
2018-05-31T02:08:53.085Z,19.70
2018-05-31T02:11:20.809Z,19.70
2018-05-31T02:13:48.550Z,19.70
2018-05-31T02:16:17.047Z,19.50
2018-05-31T02:18:45.551Z,19.50
2018-05-31T02:21:14.016Z,19.50
2018-05-31T02:23:41.722Z,19.50
2018-05-31T02:26:09.529Z,19.40
2018-05-31T02:28:37.220Z,19.40
2018-05-31T02:31:05.708Z,19.50
2018-05-31T02:33:33.724Z,19.50
2018-05-31T02:36:01.469Z,19.50
2018-05-31T02:38:29.913Z,19.40
2018-05-31T02:40:58.401Z,19.40
2018-05-31T02:43:26.883Z,19.30
2018-05-31T02:45:54.791Z,19.30
2018-05-31T02:48:22.496Z,19.30
2018-05-31T02:50:50.204Z,19.30
2018-05-31T02:53:17.907Z,19.30
2018-05-31T02:55:45.627Z,19.20
2018-05-31T02:58:14.111Z,19.10
2018-05-31T03:00:42.548Z,19.10
2018-05-31T03:03:10.260Z,19.10
2018-05-31T03:05:37.970Z,19.20
2018-05-31T03:08:05.843Z,19.20
2018-05-31T03:10:33.495Z,19.10
2018-05-31T03:13:01.203Z,19.20
2018-05-31T03:15:29.040Z,19.10
2018-05-31T03:17:56.756Z,19.00
2018-05-31T03:20:24.488Z,19.10
2018-05-31T03:22:52.978Z,19.20
2018-05-31T03:25:21.453Z,19.20
2018-05-31T03:27:49.954Z,19.20
2018-05-31T03:30:18.415Z,19.30
2018-05-31T03:32:47.386Z,19.20
2018-05-31T03:35:15.116Z,19.20
2018-05-31T03:37:42.829Z,19.20
2018-05-31T03:40:10.567Z,19.30
2018-05-31T03:42:38.271Z,19.30
2018-05-31T03:45:06.798Z,19.30
2018-05-31T03:47:34.518Z,19.30
2018-05-31T03:50:02.216Z,19.30
2018-05-31T03:52:30.028Z,19.40
2018-05-31T03:54:57.715Z,19.50
2018-05-31T03:57:26.172Z,19.50
2018-05-31T03:59:53.888Z,19.50
2018-05-31T04:02:21.710Z,19.60
2018-05-31T04:04:49.399Z,19.70
2018-05-31T04:07:17.884Z,19.80
2018-05-31T04:09:46.357Z,19.90
2018-05-31T04:12:14.828Z,20.10
2018-05-31T04:14:43.120Z,20.10
2018-05-31T04:17:11.581Z,20.80
2018-05-31T04:19:39.345Z,20.70
2018-05-31T04:22:07.023Z,21.10
2018-05-31T04:24:35.527Z,20.90
2018-05-31T04:27:03.244Z,20.90
2018-05-31T04:29:30.945Z,21.00
2018-05-31T04:31:59.408Z,21.30
2018-05-31T04:34:27.109Z,21.30
2018-05-31T04:36:54.778Z,21.60
2018-05-31T04:39:22.481Z,22.10
2018-05-31T04:41:50.208Z,22.60
2018-05-31T04:44:17.924Z,22.80
2018-05-31T04:46:45.680Z,22.80
2018-05-31T04:49:14.660Z,23.00
2018-05-31T04:51:42.364Z,23.00
2018-05-31T04:54:10.065Z,23.30
2018-05-31T04:56:37.826Z,23.70
2018-05-31T04:59:05.537Z,23.90
2018-05-31T05:01:33.261Z,23.90
2018-05-31T05:04:00.983Z,24.00
2018-05-31T05:06:28.703Z,24.10
2018-05-31T05:08:56.389Z,24.10
2018-05-31T05:11:25.439Z,24.90
2018-05-31T05:13:53.179Z,24.90
2018-05-31T05:16:21.651Z,26.30
2018-05-31T05:18:50.647Z,27.30
2018-05-31T05:21:18.442Z,27.30
2018-05-31T05:23:46.176Z,27.40
2018-05-31T05:26:13.878Z,26.70
2018-05-31T05:28:41.581Z,26.20
2018-05-31T05:31:09.281Z,25.90
2018-05-31T05:33:37.744Z,24.80
2018-05-31T05:36:05.706Z,24.70
2018-05-31T05:38:33.403Z,24.60
2018-05-31T05:41:01.196Z,24.20
2018-05-31T05:43:28.907Z,23.60
2018-05-31T05:45:56.643Z,23.60
2018-05-31T05:48:24.346Z,23.40
2018-05-31T05:50:52.864Z,22.90
2018-05-31T05:53:20.585Z,22.90
2018-05-31T05:55:48.348Z,22.90
2018-05-31T05:58:16.032Z,22.80
2018-05-31T06:00:44.499Z,22.60
2018-05-31T06:03:12.185Z,22.60
2018-05-31T06:05:40.145Z,22.50
2018-05-31T06:08:08.626Z,22.40
2018-05-31T06:10:36.998Z,22.40
2018-05-31T06:13:05.508Z,22.60
2018-05-31T06:15:34.097Z,23.00
2018-05-31T06:18:01.808Z,23.00
2018-05-31T06:20:29.528Z,23.20
2018-05-31T06:22:57.270Z,23.30
2018-05-31T06:25:25.774Z,23.40
2018-05-31T06:27:53.512Z,23.40
2018-05-31T06:30:21.964Z,23.60
2018-05-31T06:32:49.708Z,23.60
2018-05-31T06:35:17.425Z,23.50
2018-05-31T06:37:45.920Z,23.80
2018-05-31T06:40:14.386Z,23.90
2018-05-31T06:42:42.886Z,23.90
2018-05-31T06:45:10.600Z,23.90
2018-05-31T06:47:38.350Z,23.90
2018-05-31T06:50:06.084Z,24.10
2018-05-31T06:52:33.779Z,24.20
2018-05-31T06:55:01.506Z,24.30
2018-05-31T06:57:29.237Z,24.50
2018-05-31T06:59:56.933Z,24.60
2018-05-31T07:02:25.387Z,24.80
2018-05-31T07:04:53.096Z,24.80
2018-05-31T07:07:20.853Z,24.90
2018-05-31T07:09:48.597Z,25.10
2018-05-31T07:12:17.083Z,25.50
2018-05-31T07:14:45.564Z,25.30
2018-05-31T07:17:14.127Z,25.70
2018-05-31T07:19:41.838Z,25.70
2018-05-31T07:22:09.577Z,26.00
2018-05-31T07:24:38.044Z,26.30
2018-05-31T07:27:06.574Z,26.50
2018-05-31T07:29:35.047Z,26.90
2018-05-31T07:32:02.899Z,26.90
2018-05-31T07:34:31.386Z,27.30
2018-05-31T07:36:59.910Z,27.50
2018-05-31T07:39:27.609Z,27.50
2018-05-31T07:41:55.346Z,27.30
2018-05-31T07:44:23.114Z,27.50
2018-05-31T07:46:50.798Z,27.50
2018-05-31T07:49:18.508Z,27.70
2018-05-31T07:51:46.266Z,27.40
2018-05-31T07:54:14.098Z,27.70
2018-05-31T07:56:41.768Z,27.90
2018-05-31T07:59:09.466Z,27.90
2018-05-31T08:01:37.208Z,27.80
2018-05-31T08:04:06.869Z,27.90
2018-05-31T08:06:36.746Z,27.90
2018-05-31T08:09:07.910Z,28.10
2018-05-31T08:11:37.711Z,27.70
2018-05-31T08:14:08.733Z,27.60
2018-05-31T08:16:39.148Z,27.50
2018-05-31T08:19:07.737Z,27.90
2018-05-31T08:21:35.451Z,27.80
2018-05-31T08:24:03.419Z,27.50
2018-05-31T08:26:31.137Z,27.20
2018-05-31T08:28:59.026Z,27.20
2018-05-31T08:31:27.547Z,27.80
2018-05-31T08:33:56.861Z,27.50
2018-05-31T08:36:24.588Z,27.50
2018-05-31T08:38:52.347Z,27.10
2018-05-31T08:41:20.820Z,27.60
2018-05-31T08:43:48.593Z,27.60
2018-05-31T08:46:17.073Z,27.80
2018-05-31T08:48:45.555Z,28.00
2018-05-31T08:51:14.013Z,27.70
2018-05-31T08:53:41.776Z,27.60
2018-05-31T08:56:10.264Z,27.40
2018-05-31T08:58:38.734Z,27.20
2018-05-31T09:01:06.439Z,27.30
2018-05-31T09:03:34.189Z,27.10
2018-05-31T09:06:02.355Z,27.20
2018-05-31T09:08:30.094Z,27.20
2018-05-31T09:10:58.438Z,27.50
2018-05-31T09:13:26.162Z,27.70
2018-05-31T09:15:54.658Z,27.80
2018-05-31T09:18:22.463Z,27.80
2018-05-31T09:20:50.195Z,27.70
2018-05-31T09:23:18.710Z,27.70
2018-05-31T09:25:46.423Z,27.70
2018-05-31T09:28:15.229Z,27.40
2018-05-31T09:30:43.066Z,27.60
2018-05-31T09:33:10.765Z,27.60
2018-05-31T09:35:38.529Z,27.40
2018-05-31T09:38:07.008Z,27.00
2018-05-31T09:40:36.393Z,26.90
2018-05-31T09:43:04.109Z,26.90
2018-05-31T09:45:31.835Z,26.80
2018-05-31T09:48:00.849Z,26.80
2018-05-31T09:50:28.570Z,26.80
2018-05-31T09:52:56.273Z,26.90
2018-05-31T09:55:25.396Z,27.20
2018-05-31T09:57:53.479Z,27.20
2018-05-31T10:00:21.242Z,27.60
2018-05-31T10:02:50.917Z,27.80
2018-05-31T10:05:21.327Z,28.00
2018-05-31T10:07:50.596Z,28.00
2018-05-31T10:10:18.319Z,28.00
2018-05-31T10:12:46.863Z,28.00
2018-05-31T10:15:14.609Z,28.00
2018-05-31T10:17:42.434Z,28.20
2018-05-31T10:20:10.920Z,27.70
2018-05-31T10:22:39.550Z,27.80
2018-05-31T10:25:07.622Z,27.70
2018-05-31T10:27:35.326Z,27.80
2018-05-31T10:30:03.061Z,27.80
2018-05-31T10:32:31.521Z,28.10
2018-05-31T10:34:59.289Z,28.10
2018-05-31T10:37:27.024Z,28.40
2018-05-31T10:39:54.942Z,28.20
2018-05-31T10:42:22.623Z,28.50
2018-05-31T10:44:50.385Z,28.80
2018-05-31T10:47:18.147Z,28.80
2018-05-31T10:49:45.904Z,28.50
2018-05-31T10:52:13.760Z,28.80
2018-05-31T10:54:41.469Z,29.00
2018-05-31T10:57:09.199Z,28.90
2018-05-31T10:59:37.073Z,28.70
2018-05-31T11:02:04.873Z,28.90
2018-05-31T11:04:32.597Z,29.00
2018-05-31T11:07:00.320Z,29.40
2018-05-31T11:09:29.201Z,29.70
2018-05-31T11:11:56.912Z,29.80
2018-05-31T11:14:25.119Z,29.90
2018-05-31T11:16:52.870Z,29.90
2018-05-31T11:19:20.668Z,29.80
2018-05-31T11:21:48.413Z,29.50
2018-05-31T11:24:16.890Z,29.30
2018-05-31T11:26:44.631Z,29.20
2018-05-31T11:29:12.715Z,28.90
2018-05-31T11:31:41.582Z,28.60
2018-05-31T11:34:09.342Z,28.60
2018-05-31T11:36:37.143Z,28.40
2018-05-31T11:39:05.320Z,28.40
2018-05-31T11:41:34.942Z,28.10
2018-05-31T11:44:02.722Z,28.10
2018-05-31T11:46:30.462Z,28.10
2018-05-31T11:48:58.946Z,28.10
2018-05-31T11:51:26.687Z,28.10
2018-05-31T11:53:54.383Z,28.00
2018-05-31T11:56:23.183Z,27.80
2018-05-31T11:58:52.466Z,27.70
2018-05-31T12:01:21.138Z,27.50
2018-05-31T12:03:49.344Z,27.50
2018-05-31T12:08:48.862Z,26.90
2018-05-31T12:11:18.303Z,26.50
2018-05-31T12:13:46.305Z,26.50
2018-05-31T12:16:14.019Z,26.20
2018-05-31T12:18:41.715Z,26.20
2018-05-31T12:21:09.483Z,26.10
2018-05-31T12:23:37.179Z,25.50
2018-05-31T12:26:05.710Z,25.10
2018-05-31T12:28:33.457Z,25.10
2018-05-31T12:31:01.250Z,25.10
2018-05-31T12:33:29.074Z,25.30
2018-05-31T12:35:57.583Z,25.30
2018-05-31T12:38:25.312Z,25.30
2018-05-31T12:40:53.033Z,25.20
2018-05-31T12:43:21.813Z,25.00
2018-05-31T12:45:49.559Z,24.90
2018-05-31T12:48:17.483Z,25.00
2018-05-31T12:50:45.295Z,24.50
2018-05-31T12:53:13.179Z,23.90
2018-05-31T12:55:40.933Z,23.10
2018-05-31T12:58:09.420Z,22.60
2018-05-31T13:00:37.118Z,22.60
2018-05-31T13:03:04.834Z,22.70
2018-05-31T13:05:32.614Z,22.70
2018-05-31T13:08:01.093Z,22.20
2018-05-31T13:10:28.863Z,22.20
2018-05-31T13:12:56.674Z,21.80
2018-05-31T13:15:24.413Z,21.60
2018-05-31T13:17:52.231Z,21.50
2018-05-31T13:20:19.987Z,21.60
2018-05-31T13:22:50.530Z,21.60
2018-05-31T13:25:19.052Z,21.60
2018-05-31T13:27:49.699Z,21.50
2018-05-31T13:30:18.174Z,21.60
2018-05-31T13:32:46.381Z,21.60
2018-05-31T13:35:14.970Z,21.70
2018-05-31T13:37:43.891Z,21.60
2018-05-31T13:40:11.724Z,21.60
2018-05-31T13:42:39.503Z,21.70
2018-05-31T13:45:07.279Z,21.60
2018-05-31T13:47:35.752Z,21.60
2018-05-31T13:50:03.499Z,21.60
2018-05-31T13:52:31.316Z,21.50
2018-05-31T13:54:59.048Z,21.40
2018-05-31T13:57:26.834Z,21.30
2018-05-31T13:59:54.564Z,21.20
2018-05-31T14:02:22.295Z,21.10
2018-05-31T14:04:50.014Z,21.10
2018-05-31T14:07:18.537Z,21.00
2018-05-31T14:09:46.272Z,21.00
2018-05-31T14:12:14.780Z,21.00
2018-05-31T14:14:42.510Z,21.00
2018-05-31T14:17:11.078Z,21.20
2018-05-31T14:19:38.779Z,21.20
2018-05-31T14:22:06.516Z,21.30
2018-05-31T14:24:34.268Z,21.30
2018-05-31T14:27:02.186Z,21.40
2018-05-31T14:29:30.647Z,21.70
2018-05-31T14:31:59.213Z,22.00
2018-05-31T14:34:27.628Z,22.00
2018-05-31T14:36:55.377Z,22.30
2018-05-31T14:39:23.873Z,22.70
2018-05-31T14:41:51.565Z,22.70
2018-05-31T14:44:19.301Z,22.90
2018-05-31T14:46:47.008Z,23.10
2018-05-31T14:49:14.791Z,23.30
2018-05-31T14:51:42.572Z,23.50
2018-05-31T14:54:10.749Z,23.60
2018-05-31T14:56:39.241Z,23.70
2018-05-31T14:59:07.010Z,23.70
2018-05-31T15:01:35.516Z,24.20
2018-05-31T15:04:03.334Z,24.10
2018-05-31T15:06:31.021Z,24.30
2018-05-31T15:08:59.521Z,24.70
2018-05-31T15:11:27.258Z,24.60
2018-05-31T15:13:55.795Z,24.90
2018-05-31T15:16:23.516Z,24.90
2018-05-31T15:18:51.355Z,24.80
2018-05-31T15:21:19.061Z,24.70
2018-05-31T15:23:46.805Z,24.80
2018-05-31T15:26:15.266Z,25.10
2018-05-31T15:28:43.007Z,25.10
2018-05-31T15:31:10.807Z,25.30
2018-05-31T15:33:38.565Z,25.50
2018-05-31T15:36:06.810Z,25.70
2018-05-31T15:38:34.420Z,25.90
2018-05-31T15:41:02.879Z,25.70
2018-05-31T15:43:30.604Z,25.70
2018-05-31T15:45:58.364Z,25.60
2018-05-31T15:48:26.100Z,25.60
2018-05-31T15:50:54.619Z,25.50
2018-05-31T15:53:22.391Z,25.50
2018-05-31T15:55:50.097Z,25.60
2018-05-31T15:58:17.862Z,25.70
2018-05-31T16:00:45.617Z,25.60
2018-05-31T16:03:13.397Z,25.50
2018-05-31T16:05:41.099Z,25.50
2018-05-31T16:08:08.934Z,25.70
2018-05-31T16:10:36.637Z,25.80
2018-05-31T16:13:05.202Z,25.70
2018-05-31T16:15:33.686Z,25.60
2018-05-31T16:18:01.498Z,25.60
2018-05-31T16:20:29.224Z,25.60
2018-05-31T16:22:56.937Z,25.80
2018-05-31T16:25:24.661Z,26.00
2018-05-31T16:27:53.119Z,25.70
2018-05-31T16:30:20.839Z,25.70
2018-05-31T16:32:48.574Z,25.60
2018-05-31T16:35:16.858Z,25.50
2018-05-31T16:37:45.974Z,25.60
2018-05-31T16:40:13.826Z,25.40
2018-05-31T16:42:42.176Z,25.30
2018-05-31T16:45:09.887Z,25.40
2018-05-31T16:47:38.459Z,25.40
2018-05-31T16:50:06.194Z,25.40
2018-05-31T16:52:34.660Z,25.40
2018-05-31T16:55:03.204Z,25.30
2018-05-31T16:57:30.966Z,25.30
2018-05-31T16:59:58.727Z,25.20
2018-05-31T17:02:26.460Z,25.20
2018-05-31T17:04:54.195Z,25.10
2018-05-31T17:07:21.903Z,25.10
2018-05-31T17:09:49.607Z,25.00
2018-05-31T17:12:17.323Z,25.00
2018-05-31T17:14:45.072Z,25.20
2018-05-31T17:17:13.569Z,25.30
2018-05-31T17:19:41.334Z,25.30
2018-05-31T17:22:09.049Z,25.20
2018-05-31T17:24:36.797Z,25.00
2018-05-31T17:27:04.494Z,24.80
2018-05-31T17:29:33.065Z,24.50
2018-05-31T17:32:00.834Z,24.50
2018-05-31T17:34:28.622Z,24.40
2018-05-31T17:36:57.122Z,24.40
2018-05-31T17:39:24.876Z,24.40
2018-05-31T17:41:53.363Z,24.20
2018-05-31T17:44:21.843Z,24.10
2018-05-31T17:46:49.615Z,24.00
2018-05-31T17:49:18.172Z,23.90
2018-05-31T17:51:45.886Z,23.90
2018-05-31T17:54:13.632Z,23.80
2018-05-31T17:56:41.362Z,23.80
2018-05-31T17:59:09.957Z,23.70
2018-05-31T18:01:38.499Z,23.70
2018-05-31T18:04:06.241Z,23.70
2018-05-31T18:06:34.014Z,23.60
2018-05-31T18:09:01.788Z,23.70
2018-05-31T18:11:29.629Z,23.70
2018-05-31T18:13:58.073Z,23.40
2018-05-31T18:16:25.822Z,23.40
2018-05-31T18:18:53.535Z,23.40
2018-05-31T18:21:21.358Z,23.40
2018-05-31T18:23:49.192Z,23.40
2018-05-31T18:26:16.944Z,23.40
2018-05-31T18:28:44.679Z,23.30
2018-05-31T18:31:12.905Z,23.20
2018-05-31T18:33:40.645Z,23.20
2018-05-31T18:36:08.349Z,23.20
2018-05-31T18:38:36.992Z,23.10
2018-05-31T18:41:05.441Z,22.90
2018-05-31T18:43:33.199Z,22.90
2018-05-31T18:46:01.403Z,22.80
2018-05-31T18:48:29.956Z,22.60
2018-05-31T18:50:57.700Z,22.60
2018-05-31T18:53:25.452Z,22.50
2018-05-31T18:55:53.230Z,22.40
2018-05-31T18:58:21.124Z,22.40
2018-05-31T19:00:48.819Z,22.40
2018-05-31T19:03:17.077Z,22.30
2018-05-31T19:05:44.928Z,22.30
2018-05-31T19:08:12.815Z,22.20
2018-05-31T19:10:41.380Z,22.10
2018-05-31T19:13:15.280Z,22.10
2018-05-31T19:15:43.055Z,22.00
2018-05-31T19:18:17.085Z,22.00
2018-05-31T19:20:45.659Z,21.90
2018-05-31T19:23:13.398Z,21.90
2018-05-31T19:25:41.139Z,21.90
2018-05-31T19:28:08.959Z,21.70
2018-05-31T19:30:42.487Z,21.70
2018-05-31T19:33:11.021Z,21.60
2018-05-31T19:35:44.526Z,21.50
2018-05-31T19:38:12.272Z,21.60
2018-05-31T19:40:40.068Z,21.60
2018-05-31T19:43:13.601Z,21.70
2018-05-31T19:45:41.356Z,21.60
2018-05-31T19:48:09.203Z,21.70
2018-05-31T19:50:36.936Z,21.60
2018-05-31T19:53:11.323Z,21.50
2018-05-31T19:55:39.105Z,21.50
2018-05-31T19:58:12.810Z,21.50
2018-05-31T20:00:47.454Z,21.50
2018-05-31T20:03:20.838Z,21.50
2018-05-31T20:05:48.716Z,21.30
2018-05-31T20:08:16.574Z,21.20
2018-05-31T20:10:45.091Z,20.90
2018-05-31T20:13:12.863Z,20.90
2018-05-31T20:15:40.655Z,20.90
2018-05-31T20:18:09.293Z,20.70
2018-05-31T20:20:37.163Z,20.70
2018-05-31T20:23:04.958Z,20.60
2018-05-31T20:25:32.759Z,20.70
2018-05-31T20:28:01.714Z,20.70
2018-05-31T20:30:30.257Z,20.70
2018-05-31T20:32:58.055Z,20.80
2018-05-31T20:35:25.954Z,20.80
2018-05-31T20:37:53.748Z,21.00
2018-05-31T20:40:22.229Z,20.90
2018-05-31T20:42:50.822Z,20.90
2018-05-31T20:45:19.386Z,20.80
2018-05-31T20:47:47.221Z,20.80
2018-05-31T20:50:14.974Z,20.80
2018-05-31T20:52:42.680Z,20.60
2018-05-31T20:55:11.267Z,20.40
2018-05-31T20:57:39.799Z,20.30
2018-05-31T21:00:07.617Z,20.30
2018-05-31T21:02:35.401Z,20.30
2018-05-31T21:05:03.173Z,20.20
2018-05-31T21:07:31.205Z,20.20
2018-05-31T21:09:58.957Z,20.10
2018-05-31T21:12:26.703Z,20.00
2018-05-31T21:14:54.437Z,19.90
2018-05-31T21:17:22.201Z,19.80
2018-05-31T21:19:50.026Z,19.80
2018-05-31T21:22:17.746Z,19.90
2018-05-31T21:24:45.522Z,19.90
2018-05-31T21:27:13.257Z,19.90
2018-05-31T21:29:40.995Z,19.90
2018-05-31T21:32:09.099Z,20.00
2018-05-31T21:34:36.822Z,20.00
2018-05-31T21:37:04.658Z,20.00
2018-05-31T21:39:32.484Z,19.90
2018-05-31T21:42:00.227Z,20.00
2018-05-31T21:44:27.946Z,20.00
2018-05-31T21:46:55.669Z,19.90
2018-05-31T21:49:24.216Z,20.00
2018-05-31T21:51:51.897Z,19.90
2018-05-31T21:54:20.439Z,20.10
2018-05-31T21:56:48.159Z,20.10
2018-05-31T21:59:16.648Z,20.00
2018-05-31T22:01:44.386Z,20.00
2018-05-31T22:04:12.104Z,19.90
2018-05-31T22:06:40.039Z,19.70
2018-05-31T22:09:07.745Z,19.60
2018-05-31T22:11:35.485Z,19.50
2018-05-31T22:14:03.228Z,19.40
2018-05-31T22:16:30.954Z,19.40
2018-05-31T22:18:58.708Z,19.60
2018-05-31T22:21:26.435Z,19.40
2018-05-31T22:23:55.841Z,19.20
2018-05-31T22:26:23.555Z,19.20
2018-05-31T22:28:51.283Z,19.30
2018-05-31T22:31:18.996Z,19.20
2018-05-31T22:33:46.713Z,19.20
2018-05-31T22:36:14.505Z,19.20
2018-05-31T22:38:42.201Z,19.30
2018-05-31T22:41:10.723Z,19.30
2018-05-31T22:43:38.428Z,19.30
2018-05-31T22:46:06.185Z,19.30
2018-05-31T22:48:33.987Z,19.10
2018-05-31T22:51:01.872Z,19.10
2018-05-31T22:53:30.324Z,19.10
2018-05-31T22:55:58.127Z,19.10
2018-05-31T22:58:26.125Z,19.10
2018-05-31T23:00:53.970Z,19.10
2018-05-31T23:03:21.742Z,19.10
2018-05-31T23:05:49.486Z,19.10
2018-05-31T23:08:18.022Z,19.20
2018-05-31T23:10:45.949Z,19.20
2018-05-31T23:13:14.789Z,19.30
2018-05-31T23:15:42.733Z,19.30
2018-05-31T23:18:10.618Z,19.30
2018-05-31T23:20:38.477Z,19.20
2018-05-31T23:23:06.922Z,19.30
2018-05-31T23:25:34.823Z,19.30
2018-05-31T23:28:02.866Z,19.30
2018-05-31T23:30:30.918Z,19.20
2018-05-31T23:32:59.614Z,19.20
2018-05-31T23:35:27.581Z,19.20
2018-05-31T23:37:55.380Z,19.30
2018-05-31T23:40:23.836Z,19.40
2018-05-31T23:42:51.585Z,19.40
2018-05-31T23:45:20.064Z,19.40
2018-05-31T23:47:48.604Z,19.50
2018-05-31T23:50:16.305Z,19.50
2018-05-31T23:52:44.764Z,19.50
2018-05-31T23:55:12.507Z,19.50
2018-05-31T23:57:40.244Z,19.60
